sensor_id;sensor_type;location;lat;lon;timestamp;temperature;humidity
75376;HTU21D;63958;52.004;5.908;2023-02-01T00:01:36;6.72;72.57
75376;HTU21D;63958;52.004;5.908;2023-02-01T00:04:05;6.72;72.42
75376;HTU21D;63958;52.004;5.908;2023-02-01T00:06:34;6.73;72.56
75376;HTU21D;63958;52.004;5.908;2023-02-01T00:09:03;6.74;72.45
75376;HTU21D;63958;52.004;5.908;2023-02-01T00:11:32;6.73;72.18
75376;HTU21D;63958;52.004;5.908;2023-02-01T00:14:04;6.75;72.27
75376;HTU21D;63958;52.004;5.908;2023-02-01T00:16:33;6.75;72.38
75376;HTU21D;63958;52.004;5.908;2023-02-01T00:19:04;6.75;72.12
75376;HTU21D;63958;52.004;5.908;2023-02-01T00:21:33;6.73;71.98
75376;HTU21D;63958;52.004;5.908;2023-02-01T00:24:03;6.72;72.06
75376;HTU21D;63958;52.004;5.908;2023-02-01T00:26:34;6.71;72.09
75376;HTU21D;63958;52.004;5.908;2023-02-01T00:29:09;6.71;72.08
75376;HTU21D;63958;52.004;5.908;2023-02-01T00:31:39;6.70;71.87
75376;HTU21D;63958;52.004;5.908;2023-02-01T00:34:09;6.71;71.79
75376;HTU21D;63958;52.004;5.908;2023-02-01T00:36:40;6.71;71.57
75376;HTU21D;63958;52.004;5.908;2023-02-01T00:39:10;6.72;71.78
75376;HTU21D;63958;52.004;5.908;2023-02-01T00:41:39;6.74;71.84
75376;HTU21D;63958;52.004;5.908;2023-02-01T00:44:10;6.75;71.91
75376;HTU21D;63958;52.004;5.908;2023-02-01T00:46:39;6.73;71.84
75376;HTU21D;63958;52.004;5.908;2023-02-01T00:49:08;6.75;71.85
75376;HTU21D;63958;52.004;5.908;2023-02-01T00:51:37;6.74;71.70
75376;HTU21D;63958;52.004;5.908;2023-02-01T00:54:06;6.74;71.81
75376;HTU21D;63958;52.004;5.908;2023-02-01T00:56:35;6.75;71.84
75376;HTU21D;63958;52.004;5.908;2023-02-01T00:59:04;6.78;71.93
75376;HTU21D;63958;52.004;5.908;2023-02-01T01:01:36;6.78;71.93
75376;HTU21D;63958;52.004;5.908;2023-02-01T01:04:05;6.76;71.66
75376;HTU21D;63958;52.004;5.908;2023-02-01T01:06:34;6.79;71.93
75376;HTU21D;63958;52.004;5.908;2023-02-01T01:09:05;6.79;72.00
75376;HTU21D;63958;52.004;5.908;2023-02-01T01:11:36;6.76;71.94
75376;HTU21D;63958;52.004;5.908;2023-02-01T01:14:08;6.75;71.85
75376;HTU21D;63958;52.004;5.908;2023-02-01T01:16:40;6.75;71.84
75376;HTU21D;63958;52.004;5.908;2023-02-01T01:19:09;6.76;71.90
75376;HTU21D;63958;52.004;5.908;2023-02-01T01:21:38;6.74;71.93
75376;HTU21D;63958;52.004;5.908;2023-02-01T01:24:07;6.73;72.02
75376;HTU21D;63958;52.004;5.908;2023-02-01T01:26:36;6.70;71.79
75376;HTU21D;63958;52.004;5.908;2023-02-01T01:29:05;6.68;72.03
75376;HTU21D;63958;52.004;5.908;2023-02-01T01:31:34;6.67;71.93
75376;HTU21D;63958;52.004;5.908;2023-02-01T01:34:05;6.66;71.90
75376;HTU21D;63958;52.004;5.908;2023-02-01T01:36:34;6.65;71.96
75376;HTU21D;63958;52.004;5.908;2023-02-01T01:39:03;6.68;72.12
75376;HTU21D;63958;52.004;5.908;2023-02-01T01:41:32;6.67;71.90
75376;HTU21D;63958;52.004;5.908;2023-02-01T01:47:20;6.67;72.04
75376;HTU21D;63958;52.004;5.908;2023-02-01T01:49:51;6.66;72.01
75376;HTU21D;63958;52.004;5.908;2023-02-01T01:52:21;6.65;72.08
75376;HTU21D;63958;52.004;5.908;2023-02-01T01:54:51;6.64;72.03
75376;HTU21D;63958;52.004;5.908;2023-02-01T01:57:25;6.65;72.13
75376;HTU21D;63958;52.004;5.908;2023-02-01T01:59:58;6.65;72.03
75376;HTU21D;63958;52.004;5.908;2023-02-01T02:02:40;6.67;72.17
75376;HTU21D;63958;52.004;5.908;2023-02-01T02:05:13;6.68;72.22
75376;HTU21D;63958;52.004;5.908;2023-02-01T02:07:47;6.69;72.32
75376;HTU21D;63958;52.004;5.908;2023-02-01T02:10:17;6.68;72.34
75376;HTU21D;63958;52.004;5.908;2023-02-01T02:12:47;6.67;72.19
75376;HTU21D;63958;52.004;5.908;2023-02-01T02:15:17;6.66;72.09
75376;HTU21D;63958;52.004;5.908;2023-02-01T02:17:52;6.66;72.13
75376;HTU21D;63958;52.004;5.908;2023-02-01T02:20:45;6.67;72.33
75376;HTU21D;63958;52.004;5.908;2023-02-01T02:32:59;6.67;72.40
75376;HTU21D;63958;52.004;5.908;2023-02-01T02:35:40;6.67;72.32
75376;HTU21D;63958;52.004;5.908;2023-02-01T02:38:15;6.68;72.16
75376;HTU21D;63958;52.004;5.908;2023-02-01T02:40:51;6.71;72.25
75376;HTU21D;63958;52.004;5.908;2023-02-01T02:43:24;6.70;72.22
75376;HTU21D;63958;52.004;5.908;2023-02-01T02:46:16;6.70;72.24
75376;HTU21D;63958;52.004;5.908;2023-02-01T02:49:04;6.68;72.27
75376;HTU21D;63958;52.004;5.908;2023-02-01T02:51:41;6.68;72.24
75376;HTU21D;63958;52.004;5.908;2023-02-01T02:54:28;6.68;72.25
75376;HTU21D;63958;52.004;5.908;2023-02-01T02:57:15;6.66;72.29
75376;HTU21D;63958;52.004;5.908;2023-02-01T02:59:59;6.67;72.31
75376;HTU21D;63958;52.004;5.908;2023-02-01T03:02:43;6.68;72.19
75376;HTU21D;63958;52.004;5.908;2023-02-01T03:05:25;6.70;72.20
75376;HTU21D;63958;52.004;5.908;2023-02-01T03:08:05;6.69;72.35
75376;HTU21D;63958;52.004;5.908;2023-02-01T03:10:44;6.69;72.40
75376;HTU21D;63958;52.004;5.908;2023-02-01T03:13:22;6.68;72.46
75376;HTU21D;63958;52.004;5.908;2023-02-01T03:15:54;6.69;72.48
75376;HTU21D;63958;52.004;5.908;2023-02-01T03:18:29;6.68;72.41
75376;HTU21D;63958;52.004;5.908;2023-02-01T03:21:02;6.67;72.54
75376;HTU21D;63958;52.004;5.908;2023-02-01T03:23:37;6.63;72.65
75376;HTU21D;63958;52.004;5.908;2023-02-01T03:26:09;6.61;72.77
75376;HTU21D;63958;52.004;5.908;2023-02-01T03:28:43;6.60;72.83
75376;HTU21D;63958;52.004;5.908;2023-02-01T03:31:14;6.61;72.73
75376;HTU21D;63958;52.004;5.908;2023-02-01T03:33:43;6.59;72.84
75376;HTU21D;63958;52.004;5.908;2023-02-01T03:36:21;6.58;72.89
75376;HTU21D;63958;52.004;5.908;2023-02-01T03:39:00;6.57;72.95
75376;HTU21D;63958;52.004;5.908;2023-02-01T03:41:35;6.58;73.03
75376;HTU21D;63958;52.004;5.908;2023-02-01T03:44:12;6.60;73.03
75376;HTU21D;63958;52.004;5.908;2023-02-01T03:46:46;6.64;73.04
75376;HTU21D;63958;52.004;5.908;2023-02-01T03:49:21;6.67;72.99
75376;HTU21D;63958;52.004;5.908;2023-02-01T03:51:53;6.71;73.00
75376;HTU21D;63958;52.004;5.908;2023-02-01T03:54:26;6.73;73.03
75376;HTU21D;63958;52.004;5.908;2023-02-01T03:56:59;6.75;73.01
75376;HTU21D;63958;52.004;5.908;2023-02-01T03:59:28;6.76;72.99
75376;HTU21D;63958;52.004;5.908;2023-02-01T04:01:57;6.75;73.03
75376;HTU21D;63958;52.004;5.908;2023-02-01T04:04:26;6.73;73.09
75376;HTU21D;63958;52.004;5.908;2023-02-01T04:06:56;6.72;73.16
75376;HTU21D;63958;52.004;5.908;2023-02-01T04:09:27;6.69;73.20
75376;HTU21D;63958;52.004;5.908;2023-02-01T04:11:56;6.69;73.25
75376;HTU21D;63958;52.004;5.908;2023-02-01T04:14:25;6.66;73.28
75376;HTU21D;63958;52.004;5.908;2023-02-01T04:16:54;6.68;73.35
75376;HTU21D;63958;52.004;5.908;2023-02-01T04:19:23;6.68;73.35
75376;HTU21D;63958;52.004;5.908;2023-02-01T04:21:52;6.69;73.35
75376;HTU21D;63958;52.004;5.908;2023-02-01T04:24:20;6.72;73.28
75376;HTU21D;63958;52.004;5.908;2023-02-01T04:26:52;6.75;73.19
75376;HTU21D;63958;52.004;5.908;2023-02-01T04:29:21;6.76;73.14
75376;HTU21D;63958;52.004;5.908;2023-02-01T04:31:50;6.76;73.14
75376;HTU21D;63958;52.004;5.908;2023-02-01T04:34:18;6.79;73.16
75376;HTU21D;63958;52.004;5.908;2023-02-01T04:36:50;6.81;73.15
75376;HTU21D;63958;52.004;5.908;2023-02-01T04:39:19;6.84;73.19
75376;HTU21D;63958;52.004;5.908;2023-02-01T04:41:48;6.85;72.94
75376;HTU21D;63958;52.004;5.908;2023-02-01T04:44:20;6.90;72.86
75376;HTU21D;63958;52.004;5.908;2023-02-01T04:46:49;6.94;72.87
75376;HTU21D;63958;52.004;5.908;2023-02-01T04:49:18;6.98;72.68
75376;HTU21D;63958;52.004;5.908;2023-02-01T04:51:47;7.01;72.63
75376;HTU21D;63958;52.004;5.908;2023-02-01T04:54:17;7.02;72.19
75376;HTU21D;63958;52.004;5.908;2023-02-01T04:56:45;7.05;72.24
75376;HTU21D;63958;52.004;5.908;2023-02-01T04:59:14;7.09;72.25
75376;HTU21D;63958;52.004;5.908;2023-02-01T05:01:46;7.12;72.31
75376;HTU21D;63958;52.004;5.908;2023-02-01T05:04:15;7.15;72.34
75376;HTU21D;63958;52.004;5.908;2023-02-01T05:06:44;7.20;72.41
75376;HTU21D;63958;52.004;5.908;2023-02-01T05:09:13;7.24;72.26
75376;HTU21D;63958;52.004;5.908;2023-02-01T05:11:42;7.25;72.28
75376;HTU21D;63958;52.004;5.908;2023-02-01T05:14:23;7.27;72.20
75376;HTU21D;63958;52.004;5.908;2023-02-01T05:16:54;7.29;72.16
75376;HTU21D;63958;52.004;5.908;2023-02-01T05:19:23;7.30;72.06
75376;HTU21D;63958;52.004;5.908;2023-02-01T05:21:52;7.31;71.26
75376;HTU21D;63958;52.004;5.908;2023-02-01T05:24:21;7.32;71.64
75376;HTU21D;63958;52.004;5.908;2023-02-01T05:26:50;7.37;71.72
75376;HTU21D;63958;52.004;5.908;2023-02-01T05:29:19;7.39;71.57
75376;HTU21D;63958;52.004;5.908;2023-02-01T05:31:48;7.43;71.65
75376;HTU21D;63958;52.004;5.908;2023-02-01T05:34:19;7.44;71.42
75376;HTU21D;63958;52.004;5.908;2023-02-01T05:36:48;7.46;71.39
75376;HTU21D;63958;52.004;5.908;2023-02-01T05:39:17;7.47;71.54
75376;HTU21D;63958;52.004;5.908;2023-02-01T05:41:46;7.48;71.13
75376;HTU21D;63958;52.004;5.908;2023-02-01T05:44:15;7.50;71.42
75376;HTU21D;63958;52.004;5.908;2023-02-01T05:46:44;7.49;71.34
75376;HTU21D;63958;52.004;5.908;2023-02-01T05:49:13;7.50;71.59
75376;HTU21D;63958;52.004;5.908;2023-02-01T05:51:44;7.52;71.52
75376;HTU21D;63958;52.004;5.908;2023-02-01T05:54:13;7.53;71.35
75376;HTU21D;63958;52.004;5.908;2023-02-01T05:56:42;7.52;71.51
75376;HTU21D;63958;52.004;5.908;2023-02-01T05:59:11;7.53;71.44
75376;HTU21D;63958;52.004;5.908;2023-02-01T06:01:40;7.54;71.32
75376;HTU21D;63958;52.004;5.908;2023-02-01T06:04:09;7.55;71.19
75376;HTU21D;63958;52.004;5.908;2023-02-01T06:06:38;7.55;71.21
75376;HTU21D;63958;52.004;5.908;2023-02-01T06:09:09;7.55;71.29
75376;HTU21D;63958;52.004;5.908;2023-02-01T06:11:39;7.55;71.44
75376;HTU21D;63958;52.004;5.908;2023-02-01T06:14:08;7.57;71.32
75376;HTU21D;63958;52.004;5.908;2023-02-01T06:16:37;7.57;71.20
75376;HTU21D;63958;52.004;5.908;2023-02-01T06:19:08;7.58;71.21
75376;HTU21D;63958;52.004;5.908;2023-02-01T06:21:37;7.55;71.13
75376;HTU21D;63958;52.004;5.908;2023-02-01T06:24:09;7.58;71.23
75376;HTU21D;63958;52.004;5.908;2023-02-01T06:26:38;7.58;70.82
75376;HTU21D;63958;52.004;5.908;2023-02-01T06:29:09;7.59;71.10
75376;HTU21D;63958;52.004;5.908;2023-02-01T06:31:38;7.59;70.70
75376;HTU21D;63958;52.004;5.908;2023-02-01T06:34:10;7.59;70.47
75376;HTU21D;63958;52.004;5.908;2023-02-01T06:36:38;7.61;70.77
75376;HTU21D;63958;52.004;5.908;2023-02-01T06:39:10;7.60;70.90
75376;HTU21D;63958;52.004;5.908;2023-02-01T06:41:41;7.60;70.93
75376;HTU21D;63958;52.004;5.908;2023-02-01T06:44:11;7.59;70.93
75376;HTU21D;63958;52.004;5.908;2023-02-01T06:46:40;7.59;71.16
75376;HTU21D;63958;52.004;5.908;2023-02-01T06:49:09;7.59;71.16
75376;HTU21D;63958;52.004;5.908;2023-02-01T06:51:38;7.59;71.22
75376;HTU21D;63958;52.004;5.908;2023-02-01T06:54:06;7.61;71.12
75376;HTU21D;63958;52.004;5.908;2023-02-01T06:56:40;7.60;71.22
75376;HTU21D;63958;52.004;5.908;2023-02-01T06:59:09;7.60;71.17
75376;HTU21D;63958;52.004;5.908;2023-02-01T07:01:39;7.60;71.28
75376;HTU21D;63958;52.004;5.908;2023-02-01T07:04:09;7.58;71.15
75376;HTU21D;63958;52.004;5.908;2023-02-01T07:06:39;7.58;71.16
75376;HTU21D;63958;52.004;5.908;2023-02-01T07:09:08;7.58;71.12
75376;HTU21D;63958;52.004;5.908;2023-02-01T07:11:40;7.59;71.28
75376;HTU21D;63958;52.004;5.908;2023-02-01T07:14:10;7.59;71.38
75376;HTU21D;63958;52.004;5.908;2023-02-01T07:16:39;7.59;71.38
75376;HTU21D;63958;52.004;5.908;2023-02-01T07:19:08;7.56;71.38
75376;HTU21D;63958;52.004;5.908;2023-02-01T07:21:37;7.55;71.43
75376;HTU21D;63958;52.004;5.908;2023-02-01T07:24:06;7.55;71.52
75376;HTU21D;63958;52.004;5.908;2023-02-01T07:26:35;7.52;71.43
75376;HTU21D;63958;52.004;5.908;2023-02-01T07:29:06;7.52;71.44
75376;HTU21D;63958;52.004;5.908;2023-02-01T07:31:35;7.49;71.37
75376;HTU21D;63958;52.004;5.908;2023-02-01T07:34:04;7.52;71.38
75376;HTU21D;63958;52.004;5.908;2023-02-01T07:36:33;7.47;71.29
75376;HTU21D;63958;52.004;5.908;2023-02-01T07:39:03;7.48;71.58
75376;HTU21D;63958;52.004;5.908;2023-02-01T07:41:32;7.45;71.62
75376;HTU21D;63958;52.004;5.908;2023-02-01T07:44:01;7.44;71.55
75376;HTU21D;63958;52.004;5.908;2023-02-01T07:46:32;7.44;71.57
75376;HTU21D;63958;52.004;5.908;2023-02-01T07:49:02;7.42;71.54
75376;HTU21D;63958;52.004;5.908;2023-02-01T07:51:31;7.42;71.71
75376;HTU21D;63958;52.004;5.908;2023-02-01T07:54:00;7.41;71.75
75376;HTU21D;63958;52.004;5.908;2023-02-01T07:56:29;7.41;71.63
75376;HTU21D;63958;52.004;5.908;2023-02-01T07:58:57;7.42;71.71
75376;HTU21D;63958;52.004;5.908;2023-02-01T08:01:28;7.42;71.74
75376;HTU21D;63958;52.004;5.908;2023-02-01T08:03:59;7.40;71.82
75376;HTU21D;63958;52.004;5.908;2023-02-01T08:06:29;7.40;71.84
75376;HTU21D;63958;52.004;5.908;2023-02-01T08:08:59;7.42;71.86
75376;HTU21D;63958;52.004;5.908;2023-02-01T08:11:28;7.46;71.85
75376;HTU21D;63958;52.004;5.908;2023-02-01T08:13:58;7.49;71.83
75376;HTU21D;63958;52.004;5.908;2023-02-01T08:16:27;7.50;71.61
75376;HTU21D;63958;52.004;5.908;2023-02-01T08:18:58;7.53;71.45
75376;HTU21D;63958;52.004;5.908;2023-02-01T08:21:28;7.55;71.51
75376;HTU21D;63958;52.004;5.908;2023-02-01T08:24:04;7.54;71.61
75376;HTU21D;63958;52.004;5.908;2023-02-01T08:26:33;7.55;71.61
75376;HTU21D;63958;52.004;5.908;2023-02-01T08:29:03;7.54;71.58
75376;HTU21D;63958;52.004;5.908;2023-02-01T08:31:33;7.55;71.67
75376;HTU21D;63958;52.004;5.908;2023-02-01T08:34:05;7.60;71.60
75376;HTU21D;63958;52.004;5.908;2023-02-01T08:36:34;7.61;71.59
75376;HTU21D;63958;52.004;5.908;2023-02-01T08:39:04;7.64;71.45
75376;HTU21D;63958;52.004;5.908;2023-02-01T08:41:35;7.69;71.39
75376;HTU21D;63958;52.004;5.908;2023-02-01T08:44:04;7.70;71.15
75376;HTU21D;63958;52.004;5.908;2023-02-01T08:46:33;7.75;71.32
75376;HTU21D;63958;52.004;5.908;2023-02-01T08:49:05;7.81;71.25
75376;HTU21D;63958;52.004;5.908;2023-02-01T08:51:34;7.89;71.29
75376;HTU21D;63958;52.004;5.908;2023-02-01T08:54:34;7.93;70.83
75376;HTU21D;63958;52.004;5.908;2023-02-01T08:57:03;7.99;70.91
75376;HTU21D;63958;52.004;5.908;2023-02-01T08:59:32;8.04;70.67
75376;HTU21D;63958;52.004;5.908;2023-02-01T09:02:01;8.11;70.87
75376;HTU21D;63958;52.004;5.908;2023-02-01T09:04:30;8.16;70.57
75376;HTU21D;63958;52.004;5.908;2023-02-01T09:06:59;8.20;70.71
75376;HTU21D;63958;52.004;5.908;2023-02-01T09:09:27;8.23;70.68
75376;HTU21D;63958;52.004;5.908;2023-02-01T09:11:59;8.26;70.41
75376;HTU21D;63958;52.004;5.908;2023-02-01T09:14:28;8.29;70.52
75376;HTU21D;63958;52.004;5.908;2023-02-01T09:16:57;8.30;70.29
75376;HTU21D;63958;52.004;5.908;2023-02-01T09:19:26;8.31;70.16
75376;HTU21D;63958;52.004;5.908;2023-02-01T09:21:54;8.32;70.35
75376;HTU21D;63958;52.004;5.908;2023-02-01T09:24:23;8.36;70.54
75376;HTU21D;63958;52.004;5.908;2023-02-01T09:26:53;8.38;70.15
75376;HTU21D;63958;52.004;5.908;2023-02-01T09:29:24;8.42;70.26
75376;HTU21D;63958;52.004;5.908;2023-02-01T09:31:53;8.42;70.30
75376;HTU21D;63958;52.004;5.908;2023-02-01T09:34:23;8.42;69.73
75376;HTU21D;63958;52.004;5.908;2023-02-01T09:36:52;8.44;69.75
75376;HTU21D;63958;52.004;5.908;2023-02-01T09:39:22;8.46;70.01
75376;HTU21D;63958;52.004;5.908;2023-02-01T09:41:57;8.48;70.09
75376;HTU21D;63958;52.004;5.908;2023-02-01T09:44:40;8.51;69.97
75376;HTU21D;63958;52.004;5.908;2023-02-01T09:47:14;8.56;70.13
75376;HTU21D;63958;52.004;5.908;2023-02-01T09:49:49;8.56;69.83
75376;HTU21D;63958;52.004;5.908;2023-02-01T09:52:25;8.57;69.57
75376;HTU21D;63958;52.004;5.908;2023-02-01T09:54:58;8.53;69.71
75376;HTU21D;63958;52.004;5.908;2023-02-01T09:57:39;8.53;69.19
75376;HTU21D;63958;52.004;5.908;2023-02-01T10:00:17;8.56;69.46
75376;HTU21D;63958;52.004;5.908;2023-02-01T10:02:49;8.53;69.45
75376;HTU21D;63958;52.004;5.908;2023-02-01T10:05:23;8.52;69.64
75376;HTU21D;63958;52.004;5.908;2023-02-01T10:08:01;8.52;69.50
75376;HTU21D;63958;52.004;5.908;2023-02-01T10:10:38;8.51;69.38
75376;HTU21D;63958;52.004;5.908;2023-02-01T10:13:23;8.50;69.62
75376;HTU21D;63958;52.004;5.908;2023-02-01T10:16:05;8.50;69.62
75376;HTU21D;63958;52.004;5.908;2023-02-01T10:18:51;8.50;69.71
75376;HTU21D;63958;52.004;5.908;2023-02-01T10:21:40;8.51;69.79
75376;HTU21D;63958;52.004;5.908;2023-02-01T10:24:20;8.52;69.48
75376;HTU21D;63958;52.004;5.908;2023-02-01T10:26:57;8.52;69.44
75376;HTU21D;63958;52.004;5.908;2023-02-01T10:29:34;8.51;69.85
75376;HTU21D;63958;52.004;5.908;2023-02-01T10:32:16;8.48;70.35
75376;HTU21D;63958;52.004;5.908;2023-02-01T10:34:50;8.47;70.92
75376;HTU21D;63958;52.004;5.908;2023-02-01T10:37:26;8.41;71.44
75376;HTU21D;63958;52.004;5.908;2023-02-01T10:39:57;8.34;71.82
75376;HTU21D;63958;52.004;5.908;2023-02-01T10:42:28;8.29;71.95
75376;HTU21D;63958;52.004;5.908;2023-02-01T10:44:59;8.27;72.63
75376;HTU21D;63958;52.004;5.908;2023-02-01T10:47:32;8.21;72.93
75376;HTU21D;63958;52.004;5.908;2023-02-01T10:50:05;8.17;72.96
75376;HTU21D;63958;52.004;5.908;2023-02-01T10:52:45;8.12;73.45
75376;HTU21D;63958;52.004;5.908;2023-02-01T10:55:27;8.07;73.58
75376;HTU21D;63958;52.004;5.908;2023-02-01T10:57:57;8.00;74.10
75376;HTU21D;63958;52.004;5.908;2023-02-01T11:00:27;7.94;74.44
75376;HTU21D;63958;52.004;5.908;2023-02-01T11:02:59;7.89;74.78
75376;HTU21D;63958;52.004;5.908;2023-02-01T11:05:43;7.87;74.49
75376;HTU21D;63958;52.004;5.908;2023-02-01T11:08:16;7.84;75.03
75376;HTU21D;63958;52.004;5.908;2023-02-01T11:10:46;7.83;75.37
75376;HTU21D;63958;52.004;5.908;2023-02-01T11:13:17;7.81;75.23
75376;HTU21D;63958;52.004;5.908;2023-02-01T11:15:54;7.81;75.06
75376;HTU21D;63958;52.004;5.908;2023-02-01T11:18:28;7.81;75.12
75376;HTU21D;63958;52.004;5.908;2023-02-01T11:20:59;7.79;75.09
75376;HTU21D;63958;52.004;5.908;2023-02-01T11:23:30;7.82;75.09
75376;HTU21D;63958;52.004;5.908;2023-02-01T11:26:10;7.81;74.93
75376;HTU21D;63958;52.004;5.908;2023-02-01T11:28:42;7.82;74.70
75376;HTU21D;63958;52.004;5.908;2023-02-01T11:31:14;7.83;74.65
75376;HTU21D;63958;52.004;5.908;2023-02-01T11:33:50;7.86;74.54
75376;HTU21D;63958;52.004;5.908;2023-02-01T11:36:23;7.86;74.28
75376;HTU21D;63958;52.004;5.908;2023-02-01T11:39:08;7.90;74.25
75376;HTU21D;63958;52.004;5.908;2023-02-01T11:41:54;7.91;74.41
75376;HTU21D;63958;52.004;5.908;2023-02-01T11:44:34;7.94;74.26
75376;HTU21D;63958;52.004;5.908;2023-02-01T11:47:38;7.93;74.22
75376;HTU21D;63958;52.004;5.908;2023-02-01T11:50:16;7.96;74.32
75376;HTU21D;63958;52.004;5.908;2023-02-01T11:55:56;7.92;74.54
75376;HTU21D;63958;52.004;5.908;2023-02-01T11:58:45;7.94;74.38
75376;HTU21D;63958;52.004;5.908;2023-02-01T12:01:35;7.99;74.13
75376;HTU21D;63958;52.004;5.908;2023-02-01T12:04:36;8.02;74.12
75376;HTU21D;63958;52.004;5.908;2023-02-01T12:07:17;8.05;74.02
75376;HTU21D;63958;52.004;5.908;2023-02-01T12:10:00;8.08;74.05
75376;HTU21D;63958;52.004;5.908;2023-02-01T12:12:37;8.12;73.99
75376;HTU21D;63958;52.004;5.908;2023-02-01T12:15:27;8.14;73.83
75376;HTU21D;63958;52.004;5.908;2023-02-01T12:21:06;8.22;73.80
75376;HTU21D;63958;52.004;5.908;2023-02-01T12:23:49;8.24;73.75
75376;HTU21D;63958;52.004;5.908;2023-02-01T12:29:25;8.33;73.41
75376;HTU21D;63958;52.004;5.908;2023-02-01T12:32:11;8.37;73.38
75376;HTU21D;63958;52.004;5.908;2023-02-01T12:35:04;8.43;73.09
75376;HTU21D;63958;52.004;5.908;2023-02-01T12:37:50;8.48;72.83
75376;HTU21D;63958;52.004;5.908;2023-02-01T12:40:32;8.52;72.67
75376;HTU21D;63958;52.004;5.908;2023-02-01T12:43:09;8.56;72.41
75376;HTU21D;63958;52.004;5.908;2023-02-01T12:45:43;8.58;72.09
75376;HTU21D;63958;52.004;5.908;2023-02-01T12:48:25;8.61;72.22
75376;HTU21D;63958;52.004;5.908;2023-02-01T12:50:57;8.63;72.06
75376;HTU21D;63958;52.004;5.908;2023-02-01T12:53:42;8.65;72.29
75376;HTU21D;63958;52.004;5.908;2023-02-01T12:56:21;8.68;71.93
75376;HTU21D;63958;52.004;5.908;2023-02-01T12:58:52;8.72;72.01
75376;HTU21D;63958;52.004;5.908;2023-02-01T13:01:26;8.73;71.96
75376;HTU21D;63958;52.004;5.908;2023-02-01T13:04:03;8.75;71.67
75376;HTU21D;63958;52.004;5.908;2023-02-01T13:06:39;8.76;71.65
75376;HTU21D;63958;52.004;5.908;2023-02-01T13:09:19;8.77;71.64
75376;HTU21D;63958;52.004;5.908;2023-02-01T13:11:54;8.77;70.61
75376;HTU21D;63958;52.004;5.908;2023-02-01T13:14:28;8.81;70.57
75376;HTU21D;63958;52.004;5.908;2023-02-01T13:17:01;8.87;70.55
75376;HTU21D;63958;52.004;5.908;2023-02-01T13:19:41;8.87;70.92
75376;HTU21D;63958;52.004;5.908;2023-02-01T13:22:16;8.87;70.97
75376;HTU21D;63958;52.004;5.908;2023-02-01T13:24:48;8.85;70.81
75376;HTU21D;63958;52.004;5.908;2023-02-01T13:27:21;8.87;70.77
75376;HTU21D;63958;52.004;5.908;2023-02-01T13:29:54;8.86;70.71
75376;HTU21D;63958;52.004;5.908;2023-02-01T13:32:51;8.88;70.84
75376;HTU21D;63958;52.004;5.908;2023-02-01T13:38:28;8.85;70.80
75376;HTU21D;63958;52.004;5.908;2023-02-01T13:41:10;8.86;70.72
75376;HTU21D;63958;52.004;5.908;2023-02-01T13:43:48;8.89;70.76
75376;HTU21D;63958;52.004;5.908;2023-02-01T13:46:19;8.89;70.48
75376;HTU21D;63958;52.004;5.908;2023-02-01T13:48:50;8.92;70.31
75376;HTU21D;63958;52.004;5.908;2023-02-01T13:51:33;8.91;70.74
75376;HTU21D;63958;52.004;5.908;2023-02-01T13:54:03;8.92;70.44
75376;HTU21D;63958;52.004;5.908;2023-02-01T13:56:41;8.90;70.71
75376;HTU21D;63958;52.004;5.908;2023-02-01T14:08:23;8.80;71.19
75376;HTU21D;63958;52.004;5.908;2023-02-01T14:10:55;8.79;71.22
75376;HTU21D;63958;52.004;5.908;2023-02-01T14:13:27;8.79;70.97
75376;HTU21D;63958;52.004;5.908;2023-02-01T14:16:15;8.81;70.93
75376;HTU21D;63958;52.004;5.908;2023-02-01T14:18:58;8.82;70.64
75376;HTU21D;63958;52.004;5.908;2023-02-01T14:21:33;8.87;70.69
75376;HTU21D;63958;52.004;5.908;2023-02-01T14:24:16;8.91;70.61
75376;HTU21D;63958;52.004;5.908;2023-02-01T14:26:49;8.93;70.54
75376;HTU21D;63958;52.004;5.908;2023-02-01T14:29:26;8.94;70.44
75376;HTU21D;63958;52.004;5.908;2023-02-01T14:32:04;8.97;70.26
75376;HTU21D;63958;52.004;5.908;2023-02-01T14:34:39;8.97;70.16
75376;HTU21D;63958;52.004;5.908;2023-02-01T14:37:25;9.00;70.24
75376;HTU21D;63958;52.004;5.908;2023-02-01T14:39:57;9.02;70.19
75376;HTU21D;63958;52.004;5.908;2023-02-01T14:42:29;9.03;69.52
75376;HTU21D;63958;52.004;5.908;2023-02-01T14:50:59;9.04;69.46
75376;HTU21D;63958;52.004;5.908;2023-02-01T14:53:33;9.05;69.50
75376;HTU21D;63958;52.004;5.908;2023-02-01T14:56:07;9.08;69.63
75376;HTU21D;63958;52.004;5.908;2023-02-01T14:58:41;9.10;69.97
75376;HTU21D;63958;52.004;5.908;2023-02-01T15:01:16;9.07;70.13
75376;HTU21D;63958;52.004;5.908;2023-02-01T15:03:55;9.07;69.83
75376;HTU21D;63958;52.004;5.908;2023-02-01T15:06:31;9.08;69.48
75376;HTU21D;63958;52.004;5.908;2023-02-01T15:09:09;9.10;69.81
75376;HTU21D;63958;52.004;5.908;2023-02-01T15:11:57;9.14;69.83
75376;HTU21D;63958;52.004;5.908;2023-02-01T15:14:28;9.15;69.77
75376;HTU21D;63958;52.004;5.908;2023-02-01T15:16:57;9.12;70.14
75376;HTU21D;63958;52.004;5.908;2023-02-01T15:19:28;9.14;70.52
75376;HTU21D;63958;52.004;5.908;2023-02-01T15:21:58;9.11;71.04
75376;HTU21D;63958;52.004;5.908;2023-02-01T15:24:30;9.05;71.64
75376;HTU21D;63958;52.004;5.908;2023-02-01T15:27:03;9.00;71.97
75376;HTU21D;63958;52.004;5.908;2023-02-01T15:29:32;8.95;72.58
75376;HTU21D;63958;52.004;5.908;2023-02-01T15:32:01;8.91;72.84
75376;HTU21D;63958;52.004;5.908;2023-02-01T15:34:45;8.82;73.18
75376;HTU21D;63958;52.004;5.908;2023-02-01T15:37:16;8.76;73.59
75376;HTU21D;63958;52.004;5.908;2023-02-01T15:40:21;8.62;72.54
75376;HTU21D;63958;52.004;5.908;2023-02-01T15:42:52;8.41;72.54
75376;HTU21D;63958;52.004;5.908;2023-02-01T15:45:25;8.27;72.99
75376;HTU21D;63958;52.004;5.908;2023-02-01T15:47:56;8.14;73.20
75376;HTU21D;63958;52.004;5.908;2023-02-01T15:50:28;8.03;73.91
75376;HTU21D;63958;52.004;5.908;2023-02-01T15:52:57;7.93;74.40
75376;HTU21D;63958;52.004;5.908;2023-02-01T15:55:33;7.88;74.59
75376;HTU21D;63958;52.004;5.908;2023-02-01T15:58:05;7.84;74.50
75376;HTU21D;63958;52.004;5.908;2023-02-01T16:00:43;7.79;75.12
75376;HTU21D;63958;52.004;5.908;2023-02-01T16:03:26;7.74;74.99
75376;HTU21D;63958;52.004;5.908;2023-02-01T16:05:57;7.72;75.50
75376;HTU21D;63958;52.004;5.908;2023-02-01T16:08:28;7.73;75.74
75376;HTU21D;63958;52.004;5.908;2023-02-01T16:11:22;7.73;75.16
75376;HTU21D;63958;52.004;5.908;2023-02-01T16:13:51;7.74;75.43
75376;HTU21D;63958;52.004;5.908;2023-02-01T16:16:20;7.76;75.33
75376;HTU21D;63958;52.004;5.908;2023-02-01T16:18:49;7.78;75.39
75376;HTU21D;63958;52.004;5.908;2023-02-01T16:21:17;7.81;75.43
75376;HTU21D;63958;52.004;5.908;2023-02-01T16:23:50;7.85;75.55
75376;HTU21D;63958;52.004;5.908;2023-02-01T16:26:22;7.89;75.70
75376;HTU21D;63958;52.004;5.908;2023-02-01T16:28:51;7.99;75.23
75376;HTU21D;63958;52.004;5.908;2023-02-01T16:31:25;8.12;74.92
75376;HTU21D;63958;52.004;5.908;2023-02-01T16:33:56;8.24;74.67
75376;HTU21D;63958;52.004;5.908;2023-02-01T16:36:25;8.34;74.46
75376;HTU21D;63958;52.004;5.908;2023-02-01T16:38:55;8.41;74.16
75376;HTU21D;63958;52.004;5.908;2023-02-01T16:41:26;8.49;74.10
75376;HTU21D;63958;52.004;5.908;2023-02-01T16:43:56;8.56;73.96
75376;HTU21D;63958;52.004;5.908;2023-02-01T16:46:26;8.61;73.80
75376;HTU21D;63958;52.004;5.908;2023-02-01T16:48:58;8.66;73.61